Time;durP1;ratioP1;P1;durP2;ratioP2;P2;SDS_P1;SDS_P2;PMS_P1;PMS_P2;Temp;Humidity;BMP_temperature;BMP_pressure;BME280_temperature;BME280_humidity;BME280_pressure;Samples;Min_cycle;Max_cycle;Signal;HPM_P1;HPM_P2
2023/10/24 00:02:02;;;;;;;;;;;;;;;13.40;100.00;97169.06;5090260;28;19924;-86
2023/10/24 00:04:28;;;;;;;;;;;;;;;13.42;100.00;97172.22;5083376;28;19928;-85
2023/10/24 00:06:55;;;;;;;;;;;;;;;13.46;100.00;97182.03;5091058;28;19930;-86
2023/10/24 00:09:21;;;;;;;;;;;;;;;13.49;100.00;97178.78;5082342;28;19924;-86
2023/10/24 00:11:47;;;;;;;;;;;;;;;13.38;100.00;97158.63;5091180;28;19928;-86
2023/10/24 00:14:13;;;;;;;;;;;;;;;13.26;100.00;97144.13;5084746;28;19935;-86
2023/10/24 00:16:40;;;;;;;;;;;;;;;13.11;100.00;97128.34;5076777;28;19932;-86
2023/10/24 00:19:07;;;;;;;;;;;;;;;13.02;100.00;97135.47;5091094;28;20015;-85
2023/10/24 00:21:34;;;;;;;;;;;;;;;13.09;100.00;97135.91;5081234;28;20018;-84
2023/10/24 00:24:00;;;;;;;;;;;;;;;13.15;100.00;97145.44;5068577;28;19924;-86
2023/10/24 00:26:26;;;;;;;;;;;;;;;13.23;100.00;97142.03;5091441;28;19930;-85
2023/10/24 00:28:53;;;;;;;;;;;;;;;13.28;100.00;97133.88;5085492;28;19971;-85
2023/10/24 00:31:20;;;;;;;;;;;;;;;13.32;100.00;97135.69;5084638;28;20011;-84
2023/10/24 00:33:46;;;;;;;;;;;;;;;13.31;100.00;97135.97;5095739;28;19930;-85
2023/10/24 00:36:13;;;;;;;;;;;;;;;13.32;100.00;97150.97;5096430;28;19928;-84
2023/10/24 00:38:40;;;;;;;;;;;;;;;13.34;100.00;97164.88;5090856;28;19934;-84
2023/10/24 00:41:06;;;;;;;;;;;;;;;13.36;100.00;97162.69;5088399;28;19924;-85
2023/10/24 00:43:32;;;;;;;;;;;;;;;13.40;100.00;97187.84;5084291;28;20019;-85
2023/10/24 00:45:59;;;;;;;;;;;;;;;13.41;100.00;97206.28;5101842;28;20308;-85
2023/10/24 00:48:25;;;;;;;;;;;;;;;13.43;100.00;97214.06;5090161;28;19935;-85
2023/10/24 00:50:51;;;;;;;;;;;;;;;13.44;100.00;97207.59;5078441;28;19928;-85
2023/10/24 00:53:19;;;;;;;;;;;;;;;13.44;100.00;97212.94;5082655;28;20011;-86
2023/10/24 00:55:46;;;;;;;;;;;;;;;13.44;100.00;97242.44;5092844;28;20020;-84
2023/10/24 00:58:13;;;;;;;;;;;;;;;13.40;100.00;97244.16;5103347;28;20421;-85
2023/10/24 01:00:41;;;;;;;;;;;;;;;13.39;100.00;97232.63;5089793;28;19932;-85
2023/10/24 01:03:07;;;;;;;;;;;;;;;13.41;100.00;97218.91;5085234;28;20081;-85
2023/10/24 01:05:33;;;;;;;;;;;;;;;13.32;100.00;97209.97;5089617;28;19979;-84
2023/10/24 01:08:00;;;;;;;;;;;;;;;13.27;100.00;97212.75;5078873;28;19924;-85
2023/10/24 01:10:28;;;;;;;;;;;;;;;13.28;100.00;97225.06;5096116;28;19923;-84
2023/10/24 01:12:54;;;;;;;;;;;;;;;13.31;100.00;97235.97;5093872;28;19935;-86
2023/10/24 01:15:20;;;;;;;;;;;;;;;13.33;100.00;97222.28;5085020;28;19931;-85
2023/10/24 01:17:50;;;;;;;;;;;;;;;13.15;100.00;97199.03;5068867;28;19925;-85
2023/10/24 01:20:17;;;;;;;;;;;;;;;12.98;100.00;97184.28;5085551;28;19966;-84
2023/10/24 01:22:45;;;;;;;;;;;;;;;12.92;100.00;97188.16;5078062;28;19975;-85
2023/10/24 01:25:12;;;;;;;;;;;;;;;12.81;100.00;97186.72;5080613;28;19951;-85
2023/10/24 01:27:39;;;;;;;;;;;;;;;12.88;100.00;97195.19;5078521;28;19931;-84
2023/10/24 01:30:06;;;;;;;;;;;;;;;12.94;100.00;97183.28;5081862;28;19924;-85
2023/10/24 01:32:33;;;;;;;;;;;;;;;12.84;100.00;97172.72;5077252;28;19931;-85
2023/10/24 01:34:59;;;;;;;;;;;;;;;12.83;100.00;97178.41;5058002;28;20035;-86
2023/10/24 01:37:25;;;;;;;;;;;;;;;12.90;100.00;97170.78;5088406;28;19934;-85
2023/10/24 01:39:53;;;;;;;;;;;;;;;12.91;100.00;97172.34;5082332;28;19935;-84
2023/10/24 01:42:19;;;;;;;;;;;;;;;12.94;100.00;97180.59;5088977;28;20011;-86
2023/10/24 01:44:46;;;;;;;;;;;;;;;13.00;100.00;97170.56;5082983;28;19924;-85
2023/10/24 01:47:12;;;;;;;;;;;;;;;12.99;100.00;97151.06;5107379;28;19934;-85
2023/10/24 01:49:38;;;;;;;;;;;;;;;12.84;100.00;97145.94;5074317;28;19924;-85
2023/10/24 01:52:05;;;;;;;;;;;;;;;12.78;100.00;97143.69;5085184;28;19927;-85
2023/10/24 01:54:31;;;;;;;;;;;;;;;12.83;100.00;97141.69;5086736;28;19930;-86
2023/10/24 01:56:59;;;;;;;;;;;;;;;12.90;100.00;97138.63;5080915;28;19950;-84
2023/10/24 01:59:25;;;;;;;;;;;;;;;12.93;100.00;97138.03;5092693;28;19934;-84
2023/10/24 02:01:51;;;;;;;;;;;;;;;12.99;100.00;97137.66;5092330;28;19935;-86
2023/10/24 02:04:18;;;;;;;;;;;;;;;13.02;100.00;97146.19;5090394;28;20559;-85
2023/10/24 02:06:44;;;;;;;;;;;;;;;12.99;100.00;97142.22;5088111;28;19924;-84
2023/10/24 02:09:11;;;;;;;;;;;;;;;12.96;100.00;97137.44;5085899;28;19946;-87
2023/10/24 02:11:37;;;;;;;;;;;;;;;12.99;100.00;97134.97;5092362;28;20049;-83
2023/10/24 02:14:05;;;;;;;;;;;;;;;13.05;100.00;97140.22;5102259;28;19946;-85
2023/10/24 02:16:32;;;;;;;;;;;;;;;13.05;100.00;97119.56;5094245;28;19934;-86
2023/10/24 02:18:58;;;;;;;;;;;;;;;12.87;100.00;97118.56;5087737;28;19930;-85
2023/10/24 02:21:24;;;;;;;;;;;;;;;12.86;100.00;97124.22;5102674;28;19975;-84
2023/10/24 02:23:51;;;;;;;;;;;;;;;12.93;100.00;97121.97;5070940;28;20015;-84
2023/10/24 02:26:17;;;;;;;;;;;;;;;12.97;100.00;97121.06;5079880;28;19928;-85
2023/10/24 02:28:44;;;;;;;;;;;;;;;13.02;100.00;97130.88;5066381;28;20367;-84
2023/10/24 02:31:11;;;;;;;;;;;;;;;13.06;100.00;97125.75;5094366;28;20467;-85
2023/10/24 02:33:37;;;;;;;;;;;;;;;13.07;100.00;97132.66;5076145;28;19985;-85
2023/10/24 02:36:07;;;;;;;;;;;;;;;13.09;100.00;97111.78;5090393;28;19924;-86
2023/10/24 02:38:33;;;;;;;;;;;;;;;13.11;100.00;97113.06;5092298;28;19924;-85
2023/10/24 02:41:00;;;;;;;;;;;;;;;13.10;100.00;97113.34;5092201;28;20383;-86
2023/10/24 02:43:26;;;;;;;;;;;;;;;13.07;100.00;97132.66;5070577;28;19925;-85
2023/10/24 02:45:52;;;;;;;;;;;;;;;13.02;100.00;97132.78;5088632;28;19936;-84
2023/10/24 02:48:21;;;;;;;;;;;;;;;12.99;100.00;97145.69;5092644;28;19924;-84
2023/10/24 02:50:51;;;;;;;;;;;;;;;13.04;100.00;97144.78;5082730;28;19928;-85
2023/10/24 02:53:17;;;;;;;;;;;;;;;13.05;100.00;97145.59;5101372;28;19924;-85
2023/10/24 02:55:44;;;;;;;;;;;;;;;13.07;100.00;97138.03;5091231;28;19924;-85
2023/10/24 02:58:10;;;;;;;;;;;;;;;13.09;100.00;97133.97;5092524;28;20015;-86
2023/10/24 03:00:36;;;;;;;;;;;;;;;13.09;100.00;97151.97;5078865;28;19929;-85
2023/10/24 03:03:03;;;;;;;;;;;;;;;13.08;100.00;97161.91;5079205;28;20134;-85
2023/10/24 03:05:31;;;;;;;;;;;;;;;13.09;100.00;97162.69;5082532;28;20379;-84
2023/10/24 03:07:57;;;;;;;;;;;;;;;13.06;100.00;97168.63;5089356;28;19939;-84
2023/10/24 03:10:25;;;;;;;;;;;;;;;13.01;100.00;97164.13;5085425;28;19930;-84
2023/10/24 03:12:52;;;;;;;;;;;;;;;13.06;100.00;97166.72;5079672;28;19947;-84
2023/10/24 03:15:18;;;;;;;;;;;;;;;13.06;100.00;97160.59;5104803;28;20382;-85
2023/10/24 03:17:45;;;;;;;;;;;;;;;13.07;100.00;97162.94;5105895;28;20026;-84
2023/10/24 03:20:11;;;;;;;;;;;;;;;13.10;100.00;97156.22;5090797;28;19959;-85
2023/10/24 03:22:39;;;;;;;;;;;;;;;13.09;100.00;97158.09;5084056;28;20023;-83
2023/10/24 03:25:06;;;;;;;;;;;;;;;13.06;100.00;97153.31;5073926;28;20411;-84
2023/10/24 03:27:32;;;;;;;;;;;;;;;13.07;100.00;97151.44;5071951;28;19935;-84
2023/10/24 03:29:58;;;;;;;;;;;;;;;13.07;100.00;97138.03;5076533;28;19928;-84
2023/10/24 03:32:26;;;;;;;;;;;;;;;13.07;100.00;97138.03;5071477;28;19924;-84
2023/10/24 03:34:53;;;;;;;;;;;;;;;13.06;100.00;97147.19;5090034;28;19934;-85
2023/10/24 03:37:20;;;;;;;;;;;;;;;13.03;100.00;97135.13;5078898;28;21199;-84
2023/10/24 03:39:47;;;;;;;;;;;;;;;13.06;100.00;97131.88;5089661;28;19934;-85
2023/10/24 03:42:14;;;;;;;;;;;;;;;13.07;100.00;97124.63;5071587;28;19956;-84
2023/10/24 03:44:41;;;;;;;;;;;;;;;13.03;100.00;97137.81;5080133;28;19924;-84
2023/10/24 03:47:07;;;;;;;;;;;;;;;13.03;100.00;97129.00;5081650;28;20026;-85
2023/10/24 03:49:34;;;;;;;;;;;;;;;13.02;100.00;97136.25;5080365;28;19924;-85
2023/10/24 03:52:00;;;;;;;;;;;;;;;12.99;100.00;97132.28;5097359;28;20019;-85
2023/10/24 03:54:27;;;;;;;;;;;;;;;13.00;100.00;97131.19;5082783;28;19931;-84
2023/10/24 03:56:55;;;;;;;;;;;;;;;13.00;100.00;97136.53;5068370;28;20303;-85
2023/10/24 03:59:22;;;;;;;;;;;;;;;13.01;100.00;97134.66;5086407;28;20366;-85
2023/10/24 04:01:48;;;;;;;;;;;;;;;12.98;100.00;97127.22;5085425;28;19924;-85
2023/10/24 04:04:15;;;;;;;;;;;;;;;12.96;100.00;97135.56;5085225;28;20587;-85
2023/10/24 04:06:41;;;;;;;;;;;;;;;12.94;100.00;97137.72;5090389;28;19931;-84
2023/10/24 04:09:08;;;;;;;;;;;;;;;12.94;100.00;97137.72;5090368;28;20027;-84
2023/10/24 04:11:34;;;;;;;;;;;;;;;12.91;100.00;97132.97;5090915;28;20027;-85
2023/10/24 04:14:02;;;;;;;;;;;;;;;12.91;100.00;97127.59;5088597;28;20336;-84
2023/10/24 04:16:29;;;;;;;;;;;;;;;12.91;100.00;97138.31;5083339;28;19935;-84
2023/10/24 04:18:55;;;;;;;;;;;;;;;12.91;100.00;97143.69;5077498;28;19934;-84
2023/10/24 04:21:21;;;;;;;;;;;;;;;12.93;100.00;97138.03;5087291;28;19928;-85
2023/10/24 04:23:48;;;;;;;;;;;;;;;12.91;100.00;97135.63;5073740;28;19928;-84
2023/10/24 04:26:14;;;;;;;;;;;;;;;12.93;100.00;97133.47;5075864;28;19924;-85
2023/10/24 04:28:40;;;;;;;;;;;;;;;12.90;100.00;97107.25;5074846;28;19924;-85
2023/10/24 04:31:08;;;;;;;;;;;;;;;12.70;100.00;97102.28;5082964;28;19929;-84
2023/10/24 04:33:34;;;;;;;;;;;;;;;12.66;100.00;97101.25;5082004;28;19930;-84
2023/10/24 04:36:01;;;;;;;;;;;;;;;12.69;100.00;97084.59;5055953;28;19967;-85
2023/10/24 04:38:27;;;;;;;;;;;;;;;12.71;100.00;97070.94;5079082;28;20027;-85
2023/10/24 04:40:54;;;;;;;;;;;;;;;12.77;100.00;97065.19;5087194;28;19977;-83
2023/10/24 04:43:20;;;;;;;;;;;;;;;12.80;100.00;97059.22;5075431;28;20018;-85
2023/10/24 04:45:46;;;;;;;;;;;;;;;12.81;100.00;97055.44;5090742;28;20449;-86
2023/10/24 04:48:14;;;;;;;;;;;;;;;12.76;100.00;97052.88;5088792;28;19967;-85
2023/10/24 04:50:40;;;;;;;;;;;;;;;12.76;100.00;97047.50;5084066;28;19928;-85
2023/10/24 04:53:07;;;;;;;;;;;;;;;12.78;100.00;97053.34;5088122;28;19975;-85
2023/10/24 04:55:35;;;;;;;;;;;;;;;12.83;100.00;97031.03;5084735;28;20391;-84
2023/10/24 04:58:02;;;;;;;;;;;;;;;12.79;100.00;97025.47;5081260;28;19928;-85
2023/10/24 05:00:28;;;;;;;;;;;;;;;12.81;100.00;97023.28;5084185;28;19964;-87
2023/10/24 05:02:55;;;;;;;;;;;;;;;12.79;100.00;97022.78;5067118;28;20417;-84
2023/10/24 05:05:23;;;;;;;;;;;;;;;12.80;100.00;97037.78;5076786;28;20611;-85
2023/10/24 05:07:49;;;;;;;;;;;;;;;12.81;100.00;97031.31;5086451;28;19924;-85
2023/10/24 05:10:16;;;;;;;;;;;;;;;12.80;100.00;97020.91;5087120;28;19924;-86
2023/10/24 05:12:42;;;;;;;;;;;;;;;12.75;100.00;97024.47;5069351;28;19932;-85
2023/10/24 05:15:09;;;;;;;;;;;;;;;12.73;100.00;97026.66;5068587;28;20002;-86
2023/10/24 05:17:35;;;;;;;;;;;;;;;12.74;100.00;97035.50;5087246;28;20375;-84
2023/10/24 05:20:02;;;;;;;;;;;;;;;12.77;100.00;97038.38;5087202;28;19995;-86
2023/10/24 05:22:31;;;;;;;;;;;;;;;12.74;100.00;97028.28;5088081;28;19936;-86
2023/10/24 05:24:57;;;;;;;;;;;;;;;12.77;100.00;97073.22;5087388;28;19928;-85
2023/10/24 05:27:25;;;;;;;;;;;;;;;12.75;100.00;97094.13;5088100;28;19928;-85
2023/10/24 05:29:52;;;;;;;;;;;;;;;12.67;100.00;97084.13;5078151;28;19936;-86
2023/10/24 05:32:18;;;;;;;;;;;;;;;12.70;100.00;97086.19;5087425;28;19963;-84
2023/10/24 05:34:45;;;;;;;;;;;;;;;12.72;100.00;97094.72;5086468;28;19931;-84
2023/10/24 05:37:11;;;;;;;;;;;;;;;12.69;100.00;97103.34;5086592;28;19999;-87
2023/10/24 05:39:39;;;;;;;;;;;;;;;12.68;100.00;97099.09;5076129;28;19928;-85
2023/10/24 05:42:06;;;;;;;;;;;;;;;12.69;100.00;97091.88;5083249;28;19935;-86
2023/10/24 05:44:32;;;;;;;;;;;;;;;12.64;100.00;97083.91;5076537;28;19924;-84
2023/10/24 05:46:58;;;;;;;;;;;;;;;12.68;100.00;97077.69;5084115;28;19928;-84
2023/10/24 05:49:25;;;;;;;;;;;;;;;12.69;100.00;97075.78;5085642;28;19924;-84
2023/10/24 05:51:52;;;;;;;;;;;;;;;12.74;100.00;97063.09;5086805;28;19971;-84
2023/10/24 05:54:18;;;;;;;;;;;;;;;12.65;100.00;97064.88;5087598;28;19928;-85
2023/10/24 05:56:46;;;;;;;;;;;;;;;12.58;100.00;97056.44;5086554;28;19934;-84
2023/10/24 05:59:12;;;;;;;;;;;;;;;12.42;100.00;97052.44;5087387;28;20501;-86
2023/10/24 06:01:38;;;;;;;;;;;;;;;12.20;100.00;97046.94;5086962;28;19958;-87
2023/10/24 06:04:05;;;;;;;;;;;;;;;12.26;100.00;97033.16;5072442;28;20007;-84
2023/10/24 06:06:31;;;;;;;;;;;;;;;12.36;100.00;97043.69;5080879;28;20015;-84
2023/10/24 06:08:58;;;;;;;;;;;;;;;12.47;100.00;97049.69;5076164;28;19932;-84
2023/10/24 06:11:24;;;;;;;;;;;;;;;12.55;100.00;97034.78;5082776;28;19928;-85
2023/10/24 06:13:52;;;;;;;;;;;;;;;12.56;100.00;97028.34;5083334;28;19924;-85
2023/10/24 06:16:19;;;;;;;;;;;;;;;12.48;100.00;97032.50;5082825;28;20397;-84
2023/10/24 06:18:45;;;;;;;;;;;;;;;12.38;100.00;97035.34;5078937;28;19932;-84
2023/10/24 06:21:12;;;;;;;;;;;;;;;12.43;100.00;97021.91;5076965;28;20404;-84
2023/10/24 06:23:38;;;;;;;;;;;;;;;12.54;100.00;97025.16;5065782;28;20446;-86
2023/10/24 06:26:05;;;;;;;;;;;;;;;12.53;100.00;97032.44;5076298;28;20015;-84
2023/10/24 06:28:31;;;;;;;;;;;;;;;12.56;100.00;97029.16;5071250;28;20027;-85
2023/10/24 06:30:59;;;;;;;;;;;;;;;12.61;100.00;97031.72;5081310;28;20314;-85
2023/10/24 06:33:26;;;;;;;;;;;;;;;12.65;100.00;97031.94;5087936;28;19925;-84
2023/10/24 06:35:52;;;;;;;;;;;;;;;12.67;100.00;97014.47;5084060;28;19932;-84
2023/10/24 06:38:19;;;;;;;;;;;;;;;12.67;100.00;97011.78;5090547;28;20022;-85
2023/10/24 06:40:46;;;;;;;;;;;;;;;12.69;100.00;97008.81;5109076;28;19934;-85
2023/10/24 06:43:12;;;;;;;;;;;;;;;12.68;100.00;96996.50;5092622;28;19924;-86
2023/10/24 06:45:39;;;;;;;;;;;;;;;12.69;100.00;97004.25;5087081;28;20508;-86
2023/10/24 06:48:07;;;;;;;;;;;;;;;12.70;100.00;96984.41;5087475;28;19928;-85
2023/10/24 06:50:33;;;;;;;;;;;;;;;12.71;100.00;96986.00;5080292;28;20494;-85
2023/10/24 06:52:59;;;;;;;;;;;;;;;12.75;100.00;96970.91;5069010;28;19925;-84
2023/10/24 06:55:26;;;;;;;;;;;;;;;12.70;100.00;96954.13;5086180;28;20031;-85
2023/10/24 06:57:52;;;;;;;;;;;;;;;12.62;100.00;96965.56;5081504;28;19975;-85
2023/10/24 07:00:20;;;;;;;;;;;;;;;12.63;100.00;96954.53;5073909;28;20038;-85
2023/10/24 07:02:47;;;;;;;;;;;;;;;12.66;100.00;96951.25;5075602;28;20585;-85
2023/10/24 07:05:14;;;;;;;;;;;;;;;12.65;100.00;96955.06;5073045;28;20526;-85
2023/10/24 07:07:41;;;;;;;;;;;;;;;12.53;100.00;96948.63;5078412;28;20540;-84
2023/10/24 07:10:08;;;;;;;;;;;;;;;12.49;100.00;96951.09;5083985;28;19935;-84
2023/10/24 07:12:35;;;;;;;;;;;;;;;12.37;100.00;96948.13;5085416;28;19931;-85
2023/10/24 07:15:03;;;;;;;;;;;;;;;12.37;100.00;96942.75;5065948;28;19974;-86
2023/10/24 07:17:30;;;;;;;;;;;;;;;12.35;100.00;96936.88;5091633;28;19978;-85
2023/10/24 07:19:56;;;;;;;;;;;;;;;12.37;100.00;96937.41;5078655;28;19960;-84
2023/10/24 07:22:24;;;;;;;;;;;;;;;12.39;100.00;96943.25;5071464;28;19928;-83
2023/10/24 07:24:50;;;;;;;;;;;;;;;12.45;100.00;96950.88;5061414;28;20325;-85
2023/10/24 07:27:17;;;;;;;;;;;;;;;12.48;100.00;96962.88;5077389;28;20434;-85
2023/10/24 07:29:43;;;;;;;;;;;;;;;12.53;100.00;96976.19;5078955;28;20012;-85
2023/10/24 07:32:09;;;;;;;;;;;;;;;12.57;100.00;96979.03;5082505;28;20030;-84
2023/10/24 07:34:36;;;;;;;;;;;;;;;12.63;100.00;96994.72;5087986;28;19924;-85
2023/10/24 07:37:03;;;;;;;;;;;;;;;12.69;100.00;96996.19;5082950;28;19935;-86
2023/10/24 07:39:30;;;;;;;;;;;;;;;12.72;100.00;96987.56;5079736;28;19932;-86
2023/10/24 07:41:57;;;;;;;;;;;;;;;12.74;100.00;96993.44;5082716;28;19924;-84
2023/10/24 07:44:23;;;;;;;;;;;;;;;12.76;100.00;96996.59;5089568;28;19970;-84
2023/10/24 07:46:49;;;;;;;;;;;;;;;12.77;100.00;97003.56;5090042;28;19956;-85
2023/10/24 07:49:16;;;;;;;;;;;;;;;12.80;100.00;97000.28;5091724;28;19924;-85
2023/10/24 07:51:42;;;;;;;;;;;;;;;12.74;100.00;96982.72;5092218;28;20015;-84
2023/10/24 07:54:10;;;;;;;;;;;;;;;12.67;100.00;96973.50;5078425;28;19994;-83
2023/10/24 07:56:38;;;;;;;;;;;;;;;12.60;100.00;96957.03;5089285;28;19924;-85
2023/10/24 07:59:05;;;;;;;;;;;;;;;12.53;100.00;96946.72;5089740;28;19924;-85
2023/10/24 08:01:31;;;;;;;;;;;;;;;12.47;100.00;96942.56;5090000;28;19928;-84
2023/10/24 08:03:58;;;;;;;;;;;;;;;12.45;100.00;96937.50;5099208;28;19947;-84
2023/10/24 08:06:24;;;;;;;;;;;;;;;12.48;100.00;96944.13;5090098;28;19924;-85
2023/10/24 08:08:51;;;;;;;;;;;;;;;12.57;100.00;96936.19;5090456;28;19958;-84
2023/10/24 08:11:17;;;;;;;;;;;;;;;12.56;100.00;96935.41;5073027;28;19976;-85
2023/10/24 08:13:45;;;;;;;;;;;;;;;12.57;100.00;96937.00;5090591;28;20689;-83
2023/10/24 08:16:12;;;;;;;;;;;;;;;12.64;100.00;96942.75;5085467;28;20049;-84
2023/10/24 08:18:38;;;;;;;;;;;;;;;12.74;100.00;96941.75;5105221;28;19925;-84
2023/10/24 08:21:05;;;;;;;;;;;;;;;12.74;100.00;96937.19;5073034;28;20653;-85
2023/10/24 08:23:31;;;;;;;;;;;;;;;12.75;100.00;96933.38;5067334;28;19927;-85
2023/10/24 08:25:58;;;;;;;;;;;;;;;12.80;100.00;96935.19;5075784;28;20736;-84
2023/10/24 08:28:24;;;;;;;;;;;;;;;12.85;100.00;96935.88;5079995;28;20387;-85
2023/10/24 08:30:52;;;;;;;;;;;;;;;12.88;100.00;96937.94;5084238;28;20011;-84
2023/10/24 08:33:20;;;;;;;;;;;;;;;12.96;100.00;96929.22;5078403;28;20007;-85
2023/10/24 08:35:47;;;;;;;;;;;;;;;13.05;100.00;96925.78;5077267;28;19979;-83
2023/10/24 08:38:13;;;;;;;;;;;;;;;13.08;100.00;96917.97;5064868;28;20043;-83
2023/10/24 08:40:40;;;;;;;;;;;;;;;13.15;100.00;96906.84;5076581;28;19929;-84
2023/10/24 08:43:08;;;;;;;;;;;;;;;13.12;100.00;96904.78;5072459;28;20019;-84
2023/10/24 08:45:36;;;;;;;;;;;;;;;13.05;100.00;96896.31;5078860;28;19959;-85
2023/10/24 08:48:04;;;;;;;;;;;;;;;13.12;100.00;96902.09;5079361;28;20303;-84
2023/10/24 08:50:30;;;;;;;;;;;;;;;13.19;100.00;96910.47;5072888;28;20035;-84
2023/10/24 08:52:57;;;;;;;;;;;;;;;13.13;100.00;96912.50;5087028;28;19924;-84
2023/10/24 08:55:24;;;;;;;;;;;;;;;13.06;100.00;96901.34;5088140;28;19932;-85
2023/10/24 08:57:50;;;;;;;;;;;;;;;13.11;100.00;96903.97;5079376;28;20341;-85
2023/10/24 09:00:17;;;;;;;;;;;;;;;13.15;100.00;96898.81;5087605;28;19974;-85
2023/10/24 09:02:44;;;;;;;;;;;;;;;13.23;100.00;96895.38;5060205;28;19925;-84
2023/10/24 09:05:13;;;;;;;;;;;;;;;13.25;100.00;96893.97;5088087;28;19973;-84
2023/10/24 09:07:39;;;;;;;;;;;;;;;13.14;100.00;96892.66;5078187;28;19970;-84
2023/10/24 09:10:06;;;;;;;;;;;;;;;13.11;100.00;96900.50;5076930;28;19924;-85
2023/10/24 09:12:34;;;;;;;;;;;;;;;13.20;100.00;96904.03;5075558;28;19928;-84
2023/10/24 09:15:01;;;;;;;;;;;;;;;13.17;100.00;96893.91;5057581;28;20387;-85
2023/10/24 09:17:30;;;;;;;;;;;;;;;13.13;100.00;96907.13;5072340;28;19928;-83
2023/10/24 09:19:57;;;;;;;;;;;;;;;13.07;100.00;96902.97;5088099;28;19934;-84
2023/10/24 09:22:27;;;;;;;;;;;;;;;13.04;100.00;96908.91;5085621;28;19924;-87
2023/10/24 09:24:55;;;;;;;;;;;;;;;12.99;100.00;96896.44;5071451;28;19924;-84
2023/10/24 09:27:24;;;;;;;;;;;;;;;12.99;100.00;96901.81;5073736;28;19928;-84
2023/10/24 09:29:50;;;;;;;;;;;;;;;13.03;100.00;96890.47;5072217;28;20615;-84
2023/10/24 09:32:17;;;;;;;;;;;;;;;13.01;100.00;96898.81;5082068;28;19930;-84
2023/10/24 09:34:44;;;;;;;;;;;;;;;12.98;100.00;96888.69;5067079;28;19928;-84
2023/10/24 09:37:13;;;;;;;;;;;;;;;13.05;100.00;96883.72;5079614;28;19924;-85
2023/10/24 09:39:56;;;;;;;;;;;;;;;13.14;100.00;96889.16;5076140;28;20320;-84
2023/10/24 09:42:25;;;;;;;;;;;;;;;13.14;100.00;96881.13;5083658;28;19978;-84
2023/10/24 09:44:52;;;;;;;;;;;;;;;13.13;100.00;96887.56;5079205;28;19924;-84
2023/10/24 09:47:19;;;;;;;;;;;;;;;13.11;100.00;96900.50;5075191;28;19999;-84
2023/10/24 09:49:46;;;;;;;;;;;;;;;13.09;100.00;96905.38;5086570;28;20434;-84
2023/10/24 09:52:13;;;;;;;;;;;;;;;13.08;100.00;96909.13;5079439;28;19974;-83
2023/10/24 09:54:39;;;;;;;;;;;;;;;13.08;100.00;96909.94;5082554;28;19928;-83
2023/10/24 09:57:07;;;;;;;;;;;;;;;13.08;100.00;96898.38;5065474;28;21553;-85
2023/10/24 09:59:34;;;;;;;;;;;;;;;13.10;100.00;96898.91;5077003;28;19931;-85
2023/10/24 10:02:01;;;;;;;;;;;;;;;13.11;100.00;96900.50;5063392;28;19934;-86
2023/10/24 10:04:28;;;;;;;;;;;;;;;13.13;100.00;96899.09;5079786;28;19986;-85
2023/10/24 10:06:55;;;;;;;;;;;;;;;13.15;100.00;96904.16;5070438;28;19942;-85
2023/10/24 10:09:22;;;;;;;;;;;;;;;13.19;100.00;96895.19;5072384;28;19964;-85
2023/10/24 10:11:48;;;;;;;;;;;;;;;13.24;100.00;96887.06;5071867;28;20342;-85
2023/10/24 10:14:25;;;;;;;;;;;;;;;13.29;100.00;96884.25;5073305;28;19949;-87
2023/10/24 10:16:54;;;;;;;;;;;;;;;13.30;100.00;96869.75;5085703;28;19924;-86
2023/10/24 10:19:37;;;;;;;;;;;;;;;13.26;100.00;96859.91;5059401;28;20592;-85
2023/10/24 10:22:12;;;;;;;;;;;;;;;13.23;100.00;96857.84;5086051;28;20020;-85
2023/10/24 10:24:48;;;;;;;;;;;;;;;13.23;100.00;96853.28;5082637;28;20539;-86
2023/10/24 10:27:20;;;;;;;;;;;;;;;13.23;100.00;96853.28;5089852;28;20555;-86
2023/10/24 10:29:53;;;;;;;;;;;;;;;13.29;100.00;96853.94;5081828;28;19990;-85
2023/10/24 10:32:27;;;;;;;;;;;;;;;13.29;100.00;96851.25;5069412;28;19939;-85
2023/10/24 10:34:55;;;;;;;;;;;;;;;13.30;100.00;96842.13;5089349;28;19924;-84
2023/10/24 10:37:21;;;;;;;;;;;;;;;13.31;100.00;96828.41;5089616;28;19928;-86
2023/10/24 10:40:14;;;;;;;;;;;;;;;13.33;100.00;96825.44;5081220;28;19956;-86
2023/10/24 10:42:47;;;;;;;;;;;;;;;13.32;100.00;96819.28;5072786;28;20383;-82
2023/10/24 10:45:24;;;;;;;;;;;;;;;13.26;100.00;96808.97;5088267;28;19932;-83
2023/10/24 10:47:51;;;;;;;;;;;;;;;13.29;100.00;96806.47;5085337;28;19931;-83
2023/10/24 10:50:19;;;;;;;;;;;;;;;13.23;100.00;96793.50;5059244;28;19959;-83
2023/10/24 10:52:49;;;;;;;;;;;;;;;13.10;100.00;96789.00;5078320;28;19924;-82
2023/10/24 10:55:24;;;;;;;;;;;;;;;13.15;100.00;96787.00;5076676;28;19964;-83
2023/10/24 10:58:01;;;;;;;;;;;;;;;13.12;100.00;96776.88;5081437;28;19931;-84
2023/10/24 11:00:32;;;;;;;;;;;;;;;13.16;100.00;96767.13;5081884;28;19928;-83
2023/10/24 11:03:05;;;;;;;;;;;;;;;13.12;100.00;96755.44;5066101;28;20011;-84
2023/10/24 11:05:47;;;;;;;;;;;;;;;13.17;100.00;96762.56;5071240;28;20403;-83
2023/10/24 11:08:17;;;;;;;;;;;;;;;13.21;100.00;96745.56;5083936;28;20016;-83
2023/10/24 11:10:55;;;;;;;;;;;;;;;13.24;100.00;96749.53;5069561;28;19925;-82
2023/10/24 11:13:36;;;;;;;;;;;;;;;13.21;100.00;96739.41;5082921;28;20015;-84
2023/10/24 11:16:04;;;;;;;;;;;;;;;13.13;100.00;96745.50;5054957;28;19931;-84
2023/10/24 11:18:31;;;;;;;;;;;;;;;13.10;100.00;96746.13;5082944;28;20618;-84
2023/10/24 11:20:58;;;;;;;;;;;;;;;13.06;100.00;96747.81;5079895;28;19935;-83
2023/10/24 11:23:24;;;;;;;;;;;;;;;13.15;100.00;96748.69;5085821;28;20387;-83
2023/10/24 11:25:51;;;;;;;;;;;;;;;13.14;100.00;96733.69;5076574;28;19924;-83
2023/10/24 11:28:17;;;;;;;;;;;;;;;13.09;100.00;96734.59;5075669;28;19928;-81
2023/10/24 11:30:43;;;;;;;;;;;;;;;13.10;100.00;96725.47;5071584;28;20598;-83
2023/10/24 11:33:11;;;;;;;;;;;;;;;13.14;100.00;96725.66;5059645;28;20454;-83
2023/10/24 11:35:37;;;;;;;;;;;;;;;13.15;100.00;96732.59;5078239;28;19932;-83
2023/10/24 11:38:04;;;;;;;;;;;;;;;13.16;100.00;96723.44;5064041;28;20409;-83
2023/10/24 11:40:30;;;;;;;;;;;;;;;13.11;100.00;96724.38;5078873;28;20410;-84
2023/10/24 11:43:03;;;;;;;;;;;;;;;13.18;100.00;96718.59;5082367;28;19924;-83
2023/10/24 11:45:30;;;;;;;;;;;;;;;13.15;100.00;96732.59;5079501;28;20396;-83
2023/10/24 11:47:56;;;;;;;;;;;;;;;13.24;100.00;96736.13;5077492;28;19924;-83
2023/10/24 11:50:37;;;;;;;;;;;;;;;13.26;100.00;96739.28;5087010;28;20386;-82
2023/10/24 11:53:03;;;;;;;;;;;;;;;13.34;100.00;96730.47;5082997;28;19928;-82
2023/10/24 11:55:31;;;;;;;;;;;;;;;13.33;100.00;96728.91;5081921;28;20337;-84
2023/10/24 11:57:58;;;;;;;;;;;;;;;13.34;100.00;96731.25;5073283;28;20543;-83
2023/10/24 12:00:27;;;;;;;;;;;;;;;13.34;100.00;96733.16;5089548;28;19924;-84
2023/10/24 12:02:54;;;;;;;;;;;;;;;13.37;100.00;96727.16;5086045;28;20522;-83
2023/10/24 12:05:20;;;;;;;;;;;;;;;13.39;100.00;96709.69;5069043;28;19928;-83
2023/10/24 12:07:53;;;;;;;;;;;;;;;13.37;100.00;96713.75;5087386;28;20457;-83
2023/10/24 12:10:19;;;;;;;;;;;;;;;13.37;100.00;96708.41;5059639;28;19931;-81
2023/10/24 12:12:46;;;;;;;;;;;;;;;13.33;100.00;96707.47;5075460;28;19930;-80
2023/10/24 12:15:12;;;;;;;;;;;;;;;13.32;100.00;96700.50;5071121;28;19996;-83
2023/10/24 12:17:39;;;;;;;;;;;;;;;13.30;100.00;96694.66;5067788;28;20007;-83
2023/10/24 12:20:06;;;;;;;;;;;;;;;13.25;100.00;96692.09;5071177;28;19924;-83
2023/10/24 12:22:32;;;;;;;;;;;;;;;13.24;100.00;96698.59;5082430;28;20302;-83
2023/10/24 12:25:00;;;;;;;;;;;;;;;13.25;100.00;96692.91;5083698;28;19928;-85
2023/10/24 12:27:26;;;;;;;;;;;;;;;13.19;100.00;96698.72;5071141;28;20324;-84
2023/10/24 12:29:52;;;;;;;;;;;;;;;13.21;100.00;96691.16;5079183;28;20409;-82
2023/10/24 12:32:19;;;;;;;;;;;;;;;13.20;100.00;96681.53;5077941;28;19924;-84
2023/10/24 12:34:45;;;;;;;;;;;;;;;13.15;100.00;96681.69;5081341;28;20405;-83
2023/10/24 12:37:11;;;;;;;;;;;;;;;13.14;100.00;96683.56;5087545;28;19924;-83